sensor_id;sensor_type;location;lat;lon;timestamp;pressure;altitude;pressure_sealevel;temperature;humidity
75938;BME280;64615;32.062;34.834;2024-01-25T00:00:21;101391.31;;;21.22;54.75
75938;BME280;64615;32.062;34.834;2024-01-25T00:02:46;101397.78;;;21.21;54.76
75938;BME280;64615;32.062;34.834;2024-01-25T00:05:12;101406.72;;;21.21;54.73
75938;BME280;64615;32.062;34.834;2024-01-25T00:07:50;101388.03;;;21.20;54.72
75938;BME280;64615;32.062;34.834;2024-01-25T00:10:17;101387.19;;;21.19;54.78
75938;BME280;64615;32.062;34.834;2024-01-25T00:12:43;101387.19;;;21.19;54.59
75938;BME280;64615;32.062;34.834;2024-01-25T00:15:09;101387.19;;;21.19;54.47
75938;BME280;64615;32.062;34.834;2024-01-25T00:17:36;101385.53;;;21.18;54.50
75938;BME280;64615;32.062;34.834;2024-01-25T00:20:01;101380.97;;;21.19;54.63
75938;BME280;64615;32.062;34.834;2024-01-25T00:22:28;101383.66;;;21.19;54.65
75938;BME280;64615;32.062;34.834;2024-01-25T00:24:53;101389.31;;;21.17;54.70
75938;BME280;64615;32.062;34.834;2024-01-25T00:27:19;101382.22;;;21.16;54.70
75938;BME280;64615;32.062;34.834;2024-01-25T00:29:44;101390.34;;;21.16;54.52
75938;BME280;64615;32.062;34.834;2024-01-25T00:32:10;101379.31;;;21.18;54.66
75938;BME280;64615;32.062;34.834;2024-01-25T00:34:36;101375.53;;;21.19;54.52
75938;BME280;64615;32.062;34.834;2024-01-25T00:37:02;101382.63;;;21.20;54.73
75938;BME280;64615;32.062;34.834;2024-01-25T00:39:28;101371.78;;;21.20;54.61
75938;BME280;64615;32.062;34.834;2024-01-25T00:42:03;101367.41;;;21.19;54.81
75938;BME280;64615;32.062;34.834;2024-01-25T00:44:31;101369.28;;;21.18;54.76
75938;BME280;64615;32.062;34.834;2024-01-25T00:46:57;101372.22;;;21.17;54.56
75938;BME280;64615;32.062;34.834;2024-01-25T00:49:23;101374.94;;;21.17;54.81
75938;BME280;64615;32.062;34.834;2024-01-25T00:51:49;101368.47;;;21.18;54.76
75938;BME280;64615;32.062;34.834;2024-01-25T00:54:16;101364.34;;;21.15;54.61
75938;BME280;64615;32.062;34.834;2024-01-25T00:56:42;101362.22;;;21.17;54.63
75938;BME280;64615;32.062;34.834;2024-01-25T00:59:08;101352.44;;;21.16;54.70
75938;BME280;64615;32.062;34.834;2024-01-25T01:01:34;101363.06;;;21.18;54.60
75938;BME280;64615;32.062;34.834;2024-01-25T01:04:00;101357.63;;;21.18;54.71
75938;BME280;64615;32.062;34.834;2024-01-25T01:06:26;101352.22;;;21.18;54.87
75938;BME280;64615;32.062;34.834;2024-01-25T01:08:52;101343.28;;;21.17;54.91
75938;BME280;64615;32.062;34.834;2024-01-25T01:11:18;101344.94;;;21.18;54.77
75938;BME280;64615;32.062;34.834;2024-01-25T01:13:44;101346.59;;;21.19;54.99
75938;BME280;64615;32.062;34.834;2024-01-25T01:16:10;101349.28;;;21.19;54.88
75938;BME280;64615;32.062;34.834;2024-01-25T01:18:35;101358.25;;;21.20;54.85
75938;BME280;64615;32.062;34.834;2024-01-25T01:21:02;101357.16;;;21.21;54.98
75938;BME280;64615;32.062;34.834;2024-01-25T01:23:27;101358.00;;;21.21;54.77
75938;BME280;64615;32.062;34.834;2024-01-25T01:25:53;101349.03;;;21.21;55.14
75938;BME280;64615;32.062;34.834;2024-01-25T01:28:18;101351.75;;;21.21;55.01
75938;BME280;64615;32.062;34.834;2024-01-25T01:30:44;101350.69;;;21.22;54.86
75938;BME280;64615;32.062;34.834;2024-01-25T01:33:11;101346.31;;;21.21;54.86
75938;BME280;64615;32.062;34.834;2024-01-25T01:35:36;101347.16;;;21.21;54.81
75938;BME280;64615;32.062;34.834;2024-01-25T01:38:02;101345.50;;;21.20;54.86
75938;BME280;64615;32.062;34.834;2024-01-25T01:40:28;101349.28;;;21.19;54.80
75938;BME280;64615;32.062;34.834;2024-01-25T01:43:00;101337.63;;;21.19;54.86
75938;BME280;64615;32.062;34.834;2024-01-25T01:45:26;101328.91;;;21.17;54.72
75938;BME280;64615;32.062;34.834;2024-01-25T01:47:53;101320.56;;;21.18;54.70
75938;BME280;64615;32.062;34.834;2024-01-25T01:50:19;101327.03;;;21.17;54.59
75938;BME280;64615;32.062;34.834;2024-01-25T01:52:46;101327.84;;;21.18;54.87
75938;BME280;64615;32.062;34.834;2024-01-25T01:55:12;101329.50;;;21.19;54.83
75938;BME280;64615;32.062;34.834;2024-01-25T01:57:38;101332.44;;;21.17;54.87
75938;BME280;64615;32.062;34.834;2024-01-25T02:00:07;101331.63;;;21.17;54.75
75938;BME280;64615;32.062;34.834;2024-01-25T02:02:33;101333.50;;;21.16;54.74
75938;BME280;64615;32.062;34.834;2024-01-25T02:04:59;101329.13;;;21.15;54.78
75938;BME280;64615;32.062;34.834;2024-01-25T02:07:26;101329.13;;;21.15;54.65
75938;BME280;64615;32.062;34.834;2024-01-25T02:09:51;101313.97;;;21.14;54.80
75938;BME280;64615;32.062;34.834;2024-01-25T02:12:17;101310.41;;;21.13;54.74
75938;BME280;64615;32.062;34.834;2024-01-25T02:14:43;101302.28;;;21.13;54.71
75938;BME280;64615;32.062;34.834;2024-01-25T02:17:08;101309.56;;;21.13;54.88
75938;BME280;64615;32.062;34.834;2024-01-25T02:19:34;101312.28;;;21.13;54.83
75938;BME280;64615;32.062;34.834;2024-01-25T02:22:04;101302.28;;;21.13;54.68
75938;BME280;64615;32.062;34.834;2024-01-25T02:24:30;101316.88;;;21.12;54.60
75938;BME280;64615;32.062;34.834;2024-01-25T02:26:55;101299.56;;;21.13;54.79
75938;BME280;64615;32.062;34.834;2024-01-25T02:29:21;101305.84;;;21.14;54.71
75938;BME280;64615;32.062;34.834;2024-01-25T02:31:47;101309.34;;;21.14;54.86
75938;BME280;64615;32.062;34.834;2024-01-25T02:34:12;101306.41;;;21.16;54.76
75938;BME280;64615;32.062;34.834;2024-01-25T02:36:38;101309.97;;;21.17;54.79
75938;BME280;64615;32.062;34.834;2024-01-25T02:39:04;101310.78;;;21.17;54.87
75938;BME280;64615;32.062;34.834;2024-01-25T02:41:31;101312.66;;;21.17;54.65
75938;BME280;64615;32.062;34.834;2024-01-25T02:43:56;101313.50;;;21.17;54.56
75938;BME280;64615;32.062;34.834;2024-01-25T02:46:22;101305.38;;;21.17;54.71
75938;BME280;64615;32.062;34.834;2024-01-25T02:48:49;101310.56;;;21.19;54.70
75938;BME280;64615;32.062;34.834;2024-01-25T02:51:14;101315.16;;;21.18;54.60
75938;BME280;64615;32.062;34.834;2024-01-25T02:53:40;101303.50;;;21.18;54.58
75938;BME280;64615;32.062;34.834;2024-01-25T02:56:06;101303.50;;;21.18;54.62
75938;BME280;64615;32.062;34.834;2024-01-25T02:58:32;101309.72;;;21.18;54.63
75938;BME280;64615;32.062;34.834;2024-01-25T03:00:58;101323.28;;;21.18;54.64
75938;BME280;64615;32.062;34.834;2024-01-25T03:03:24;101315.97;;;21.19;54.70
75938;BME280;64615;32.062;34.834;2024-01-25T03:05:53;101310.56;;;21.19;54.42
75938;BME280;64615;32.062;34.834;2024-01-25T03:08:18;101309.84;;;21.23;54.52
75938;BME280;64615;32.062;34.834;2024-01-25T03:10:46;101309.38;;;21.26;54.50
75938;BME280;64615;32.062;34.834;2024-01-25T03:13:15;101299.13;;;21.28;54.27
75938;BME280;64615;32.062;34.834;2024-01-25T03:15:42;101309.63;;;21.25;54.34
75938;BME280;64615;32.062;34.834;2024-01-25T03:18:08;101308.41;;;21.21;54.44
75938;BME280;64615;32.062;34.834;2024-01-25T03:20:33;101310.31;;;21.20;54.37
75938;BME280;64615;32.062;34.834;2024-01-25T03:22:59;101302.44;;;21.19;54.55
75938;BME280;64615;32.062;34.834;2024-01-25T03:25:24;101294.75;;;21.16;54.36
75938;BME280;64615;32.062;34.834;2024-01-25T03:27:50;101302.06;;;21.15;54.45
75938;BME280;64615;32.062;34.834;2024-01-25T03:30:16;101299.56;;;21.13;54.45
75938;BME280;64615;32.062;34.834;2024-01-25T03:32:41;101310.41;;;21.13;54.34
75938;BME280;64615;32.062;34.834;2024-01-25T03:35:07;101307.69;;;21.13;54.35
75938;BME280;64615;32.062;34.834;2024-01-25T03:37:33;101317.09;;;21.11;54.55
75938;BME280;64615;32.062;34.834;2024-01-25T03:39:59;101319.81;;;21.11;54.29
75938;BME280;64615;32.062;34.834;2024-01-25T03:42:24;101326.28;;;21.10;54.44
75938;BME280;64615;32.062;34.834;2024-01-25T03:44:50;101319.22;;;21.09;54.41
75938;BME280;64615;32.062;34.834;2024-01-25T03:47:16;101321.13;;;21.08;54.46
75938;BME280;64615;32.062;34.834;2024-01-25T03:49:41;101329.22;;;21.08;54.45
75938;BME280;64615;32.062;34.834;2024-01-25T03:52:07;101321.34;;;21.07;54.52
75938;BME280;64615;32.062;34.834;2024-01-25T03:54:33;101327.56;;;21.07;54.41
75938;BME280;64615;32.062;34.834;2024-01-25T03:56:59;101329.47;;;21.07;54.22
75938;BME280;64615;32.062;34.834;2024-01-25T03:59:24;101329.47;;;21.07;54.21
75938;BME280;64615;32.062;34.834;2024-01-25T04:01:50;101328.84;;;21.05;54.33
75938;BME280;64615;32.062;34.834;2024-01-25T04:04:15;101323.91;;;21.02;54.59
75938;BME280;64615;32.062;34.834;2024-01-25T04:06:42;101329.22;;;21.08;54.05
75938;BME280;64615;32.062;34.834;2024-01-25T04:09:08;101334.78;;;21.13;54.44
75938;BME280;64615;32.062;34.834;2024-01-25T04:11:35;101328.31;;;21.14;54.50
75938;BME280;64615;32.062;34.834;2024-01-25T04:14:01;101341.75;;;21.21;54.24
75938;BME280;64615;32.062;34.834;2024-01-25T04:16:26;101341.88;;;21.26;54.27
75938;BME280;64615;32.062;34.834;2024-01-25T04:18:52;101335.63;;;21.26;54.23
75938;BME280;64615;32.062;34.834;2024-01-25T04:21:18;101336.00;;;21.29;54.23
75938;BME280;64615;32.062;34.834;2024-01-25T04:23:44;101339.53;;;21.30;54.14
75938;BME280;64615;32.062;34.834;2024-01-25T04:26:09;101343.28;;;21.29;54.31
75938;BME280;64615;32.062;34.834;2024-01-25T04:28:35;101339.53;;;21.30;54.40
75938;BME280;64615;32.062;34.834;2024-01-25T04:31:04;101350.09;;;21.31;54.40
75938;BME280;64615;32.062;34.834;2024-01-25T04:33:30;101341.16;;;21.31;54.14
75938;BME280;64615;32.062;34.834;2024-01-25T04:35:55;101352.59;;;21.33;54.21
75938;BME280;64615;32.062;34.834;2024-01-25T04:38:21;101351.03;;;21.25;54.46
75938;BME280;64615;32.062;34.834;2024-01-25T04:40:47;101353.41;;;21.22;54.47
75938;BME280;64615;32.062;34.834;2024-01-25T04:43:13;101354.22;;;21.22;54.12
75938;BME280;64615;32.062;34.834;2024-01-25T04:45:39;101353.31;;;21.28;54.38
75938;BME280;64615;32.062;34.834;2024-01-25T04:48:06;101353.31;;;21.28;54.30
75938;BME280;64615;32.062;34.834;2024-01-25T04:50:31;101358.38;;;21.25;54.42
75938;BME280;64615;32.062;34.834;2024-01-25T04:52:57;101362.47;;;21.27;54.67
75938;BME280;64615;32.062;34.834;2024-01-25T04:55:23;101364.84;;;21.35;54.04
75938;BME280;64615;32.062;34.834;2024-01-25T04:57:48;101364.72;;;21.19;52.68
75938;BME280;64615;32.062;34.834;2024-01-25T05:00:20;101357.59;;;21.06;52.70
75938;BME280;64615;32.062;34.834;2024-01-25T05:02:47;101362.53;;;21.09;52.78
75938;BME280;64615;32.062;34.834;2024-01-25T05:05:13;101364.34;;;21.15;52.98
75938;BME280;64615;32.062;34.834;2024-01-25T05:07:38;101363.88;;;21.18;53.00
75938;BME280;64615;32.062;34.834;2024-01-25T05:10:05;101365.06;;;21.22;52.94
75938;BME280;64615;32.062;34.834;2024-01-25T05:12:31;101364.00;;;21.23;53.04
75938;BME280;64615;32.062;34.834;2024-01-25T05:14:57;101362.69;;;21.26;53.21
75938;BME280;64615;32.062;34.834;2024-01-25T05:17:23;101367.28;;;21.25;53.15
75938;BME280;64615;32.062;34.834;2024-01-25T05:19:49;101363.19;;;21.23;53.19
75938;BME280;64615;32.062;34.834;2024-01-25T05:22:14;101377.31;;;21.25;53.03
75938;BME280;64615;32.062;34.834;2024-01-25T05:24:40;101376.97;;;21.33;53.09
75938;BME280;64615;32.062;34.834;2024-01-25T05:27:06;101377.31;;;21.36;52.90
75938;BME280;64615;32.062;34.834;2024-01-25T05:29:31;101378.25;;;21.30;53.06
75938;BME280;64615;32.062;34.834;2024-01-25T05:31:57;101384.25;;;21.32;53.14
75938;BME280;64615;32.062;34.834;2024-01-25T05:34:24;101388.28;;;21.30;53.13
75938;BME280;64615;32.062;34.834;2024-01-25T05:36:50;101391.66;;;21.25;52.97
75938;BME280;64615;32.062;34.834;2024-01-25T05:39:15;101389.19;;;21.24;53.16
75938;BME280;64615;32.062;34.834;2024-01-25T05:41:42;101384.84;;;21.23;52.98
75938;BME280;64615;32.062;34.834;2024-01-25T05:44:11;101383.78;;;21.24;53.26
75938;BME280;64615;32.062;34.834;2024-01-25T05:46:37;101386.25;;;21.25;53.07
75938;BME280;64615;32.062;34.834;2024-01-25T05:49:02;101391.00;;;21.30;53.16
75938;BME280;64615;32.062;34.834;2024-01-25T05:51:28;101390.16;;;21.29;53.35
75938;BME280;64615;32.062;34.834;2024-01-25T05:53:53;101401.56;;;21.31;53.29
75938;BME280;64615;32.062;34.834;2024-01-25T05:56:19;101399.91;;;21.30;52.98
75938;BME280;64615;32.062;34.834;2024-01-25T05:58:45;101395.81;;;21.28;53.03
75938;BME280;64615;32.062;34.834;2024-01-25T06:01:10;101401.22;;;21.28;53.00
75938;BME280;64615;32.062;34.834;2024-01-25T06:03:36;101397.06;;;21.25;53.28
75938;BME280;64615;32.062;34.834;2024-01-25T06:06:02;101398.84;;;21.20;53.25
75938;BME280;64615;32.062;34.834;2024-01-25T06:08:28;101406.59;;;21.16;53.17
75938;BME280;64615;32.062;34.834;2024-01-25T06:10:53;101399.75;;;21.13;53.09
75938;BME280;64615;32.062;34.834;2024-01-25T06:13:19;101397.75;;;21.09;53.33
75938;BME280;64615;32.062;34.834;2024-01-25T06:15:44;101398.78;;;21.08;53.14
75938;BME280;64615;32.062;34.834;2024-01-25T06:18:10;101411.50;;;21.07;52.89
75938;BME280;64615;32.062;34.834;2024-01-25T06:20:36;101418.78;;;21.07;52.93
75938;BME280;64615;32.062;34.834;2024-01-25T06:23:01;101422.78;;;21.04;52.77
75938;BME280;64615;32.062;34.834;2024-01-25T06:25:27;101407.34;;;21.05;52.63
75938;BME280;64615;32.062;34.834;2024-01-25T06:27:56;101404.06;;;21.03;52.82
75938;BME280;64615;32.062;34.834;2024-01-25T06:30:22;101404.91;;;21.03;52.51
75938;BME280;64615;32.062;34.834;2024-01-25T06:32:48;101402.41;;;21.02;52.49
75938;BME280;64615;32.062;34.834;2024-01-25T06:35:14;101401.13;;;21.04;52.85
75938;BME280;64615;32.062;34.834;2024-01-25T06:37:40;101397.59;;;21.04;52.40
75938;BME280;64615;32.062;34.834;2024-01-25T06:40:07;101401.50;;;21.08;52.15
75938;BME280;64615;32.062;34.834;2024-01-25T06:42:33;101382.28;;;21.09;51.92
75938;BME280;64615;32.062;34.834;2024-01-25T06:44:58;101376.66;;;21.11;51.83
75938;BME280;64615;32.062;34.834;2024-01-25T06:47:24;101379.97;;;21.13;51.58
75938;BME280;64615;32.062;34.834;2024-01-25T06:49:50;101393.50;;;21.13;51.68
75938;BME280;64615;32.062;34.834;2024-01-25T06:52:17;101405.59;;;21.10;52.03
75938;BME280;64615;32.062;34.834;2024-01-25T06:54:44;101408.56;;;21.09;52.02
75938;BME280;64615;32.062;34.834;2024-01-25T06:57:09;101415.38;;;21.11;51.98
75938;BME280;64615;32.062;34.834;2024-01-25T06:59:35;101409.16;;;21.11;51.80
75938;BME280;64615;32.062;34.834;2024-01-25T07:02:01;101411.03;;;21.10;51.92
75938;BME280;64615;32.062;34.834;2024-01-25T07:04:29;101410.19;;;21.10;52.01
75938;BME280;64615;32.062;34.834;2024-01-25T07:06:55;101413.72;;;21.10;51.95
75938;BME280;64615;32.062;34.834;2024-01-25T07:09:20;101414.56;;;21.11;51.95
75938;BME280;64615;32.062;34.834;2024-01-25T07:11:46;101407.03;;;21.13;51.88
75938;BME280;64615;32.062;34.834;2024-01-25T07:14:12;101411.19;;;21.16;51.96
75938;BME280;64615;32.062;34.834;2024-01-25T07:16:38;101414.50;;;21.18;51.65
75938;BME280;64615;32.062;34.834;2024-01-25T07:19:03;101419.91;;;21.18;51.66
75938;BME280;64615;32.062;34.834;2024-01-25T07:21:29;101421.56;;;21.19;51.84
75938;BME280;64615;32.062;34.834;2024-01-25T07:24:03;101430.16;;;21.27;51.61
75938;BME280;64615;32.062;34.834;2024-01-25T07:26:31;101423.03;;;21.44;51.11
75938;BME280;64615;32.062;34.834;2024-01-25T07:28:57;101424.78;;;21.39;51.16
75938;BME280;64615;32.062;34.834;2024-01-25T07:31:25;101426.66;;;21.38;51.33
75938;BME280;64615;32.062;34.834;2024-01-25T07:33:52;101431.03;;;21.39;51.15
75938;BME280;64615;32.062;34.834;2024-01-25T07:36:17;101423.59;;;21.35;50.99
75938;BME280;64615;32.062;34.834;2024-01-25T07:38:44;101419.25;;;21.34;51.13
75938;BME280;64615;32.062;34.834;2024-01-25T07:41:12;101416.31;;;21.35;51.13
75938;BME280;64615;32.062;34.834;2024-01-25T07:43:37;101419.81;;;21.36;51.09
75938;BME280;64615;32.062;34.834;2024-01-25T07:46:03;101421.84;;;21.40;50.92
75938;BME280;64615;32.062;34.834;2024-01-25T07:48:28;101415.84;;;21.50;50.50
75938;BME280;64615;32.062;34.834;2024-01-25T07:50:54;101416.56;;;21.45;50.35
75938;BME280;64615;32.062;34.834;2024-01-25T07:53:20;101407.97;;;21.48;50.38
75938;BME280;64615;32.062;34.834;2024-01-25T07:55:45;101405.38;;;21.53;50.43
75938;BME280;64615;32.062;34.834;2024-01-25T07:58:11;101394.88;;;21.69;49.96
75938;BME280;64615;32.062;34.834;2024-01-25T08:00:37;101396.88;;;21.73;49.90
75938;BME280;64615;32.062;34.834;2024-01-25T08:03:02;101400.41;;;21.74;49.64
75938;BME280;64615;32.062;34.834;2024-01-25T08:05:28;101391.25;;;21.75;49.83
75938;BME280;64615;32.062;34.834;2024-01-25T08:07:54;101384.38;;;21.72;49.88
75938;BME280;64615;32.062;34.834;2024-01-25T08:10:19;101385.22;;;21.73;49.88
75938;BME280;64615;32.062;34.834;2024-01-25T08:12:45;101384.28;;;21.67;49.90
75938;BME280;64615;32.062;34.834;2024-01-25T08:15:13;101387.13;;;21.61;50.10
75938;BME280;64615;32.062;34.834;2024-01-25T08:17:39;101391.84;;;21.65;50.05
75938;BME280;64615;32.062;34.834;2024-01-25T08:20:05;101384.28;;;21.67;50.24
75938;BME280;64615;32.062;34.834;2024-01-25T08:22:31;101393.72;;;21.65;50.20
75938;BME280;64615;32.062;34.834;2024-01-25T08:24:58;101386.75;;;21.69;49.90
75938;BME280;64615;32.062;34.834;2024-01-25T08:27:24;101390.19;;;21.64;50.03
75938;BME280;64615;32.062;34.834;2024-01-25T08:29:50;101383.94;;;21.64;50.04
75938;BME280;64615;32.062;34.834;2024-01-25T08:32:15;101387.47;;;21.64;50.35
75938;BME280;64615;32.062;34.834;2024-01-25T08:34:41;101385.59;;;21.65;50.25
75938;BME280;64615;32.062;34.834;2024-01-25T08:37:07;101376.63;;;21.64;50.29
75938;BME280;64615;32.062;34.834;2024-01-25T08:39:32;101380.16;;;21.65;50.31
75938;BME280;64615;32.062;34.834;2024-01-25T08:41:58;101382.28;;;21.63;50.34
75938;BME280;64615;32.062;34.834;2024-01-25T08:44:27;101372.50;;;21.62;50.27
75938;BME280;64615;32.062;34.834;2024-01-25T08:46:53;101377.91;;;21.62;50.46
75938;BME280;64615;32.062;34.834;2024-01-25T08:49:19;101368.72;;;21.63;50.61
75938;BME280;64615;32.062;34.834;2024-01-25T08:51:44;101367.91;;;21.62;50.44
75938;BME280;64615;32.062;34.834;2024-01-25T08:54:10;101367.44;;;21.65;50.28
75938;BME280;64615;32.062;34.834;2024-01-25T08:56:35;101369.31;;;21.65;50.24
75938;BME280;64615;32.062;34.834;2024-01-25T08:59:01;101356.84;;;21.64;50.29
75938;BME280;64615;32.062;34.834;2024-01-25T09:01:27;101344.34;;;21.63;50.31
75938;BME280;64615;32.062;34.834;2024-01-25T09:03:53;101352.47;;;21.63;50.31
75938;BME280;64615;32.062;34.834;2024-01-25T09:06:19;101355.19;;;21.63;50.36
75938;BME280;64615;32.062;34.834;2024-01-25T09:08:44;101341.63;;;21.63;50.04
75938;BME280;64615;32.062;34.834;2024-01-25T09:11:10;101343.28;;;21.64;50.16
75938;BME280;64615;32.062;34.834;2024-01-25T09:13:36;101335.16;;;21.64;50.20
75938;BME280;64615;32.062;34.834;2024-01-25T09:16:01;101329.75;;;21.64;50.11
75938;BME280;64615;32.062;34.834;2024-01-25T09:18:27;101323.50;;;21.63;50.11
75938;BME280;64615;32.062;34.834;2024-01-25T09:20:53;101317.84;;;21.65;50.21
75938;BME280;64615;32.062;34.834;2024-01-25T09:23:18;101319.72;;;21.64;50.16
75938;BME280;64615;32.062;34.834;2024-01-25T09:25:45;101315.59;;;21.62;50.06
75938;BME280;64615;32.062;34.834;2024-01-25T09:28:11;101313.72;;;21.62;50.22
75938;BME280;64615;32.062;34.834;2024-01-25T09:30:41;101308.56;;;21.61;50.09
75938;BME280;64615;32.062;34.834;2024-01-25T09:33:07;101290.88;;;21.58;50.09
75938;BME280;64615;32.062;34.834;2024-01-25T09:35:32;101290.88;;;21.58;50.13
75938;BME280;64615;32.062;34.834;2024-01-25T09:37:58;101283.78;;;21.57;49.95
75938;BME280;64615;32.062;34.834;2024-01-25T09:40:24;101282.41;;;21.54;49.76
75938;BME280;64615;32.062;34.834;2024-01-25T09:42:52;101268.03;;;21.54;49.85
75938;BME280;64615;32.062;34.834;2024-01-25T09:45:18;101275.34;;;21.53;49.94
75938;BME280;64615;32.062;34.834;2024-01-25T09:47:45;101276.38;;;21.52;49.78
75938;BME280;64615;32.062;34.834;2024-01-25T09:50:11;101267.44;;;21.52;49.76
75938;BME280;64615;32.062;34.834;2024-01-25T09:52:38;101261.19;;;21.51;49.79
75938;BME280;64615;32.062;34.834;2024-01-25T09:55:07;101244.94;;;21.51;49.94
75938;BME280;64615;32.062;34.834;2024-01-25T09:57:35;101250.34;;;21.51;49.77
75938;BME280;64615;32.062;34.834;2024-01-25T10:00:04;101241.16;;;21.52;49.73
75938;BME280;64615;32.062;34.834;2024-01-25T10:02:31;101244.72;;;21.53;49.75
75938;BME280;64615;32.062;34.834;2024-01-25T10:04:56;101249.91;;;21.54;49.82
75938;BME280;64615;32.062;34.834;2024-01-25T10:07:45;101246.59;;;21.52;49.69
75938;BME280;64615;32.062;34.834;2024-01-25T10:10:12;101240.34;;;21.52;49.69
75938;BME280;64615;32.062;34.834;2024-01-25T10:12:40;101225.97;;;21.51;49.80
75938;BME280;64615;32.062;34.834;2024-01-25T10:15:07;101226.22;;;21.50;49.63
75938;BME280;64615;32.062;34.834;2024-01-25T10:17:33;101210.81;;;21.50;49.91
75938;BME280;64615;32.062;34.834;2024-01-25T10:19:58;101212.91;;;21.48;49.67
75938;BME280;64615;32.062;34.834;2024-01-25T10:22:25;101204.78;;;21.48;49.78
75938;BME280;64615;32.062;34.834;2024-01-25T10:24:50;101201.25;;;21.48;49.81
75938;BME280;64615;32.062;34.834;2024-01-25T10:27:17;101195.84;;;21.48;49.78
75938;BME280;64615;32.062;34.834;2024-01-25T10:29:42;101185.84;;;21.48;49.82
75938;BME280;64615;32.062;34.834;2024-01-25T10:32:08;101181.47;;;21.47;49.92
75938;BME280;64615;32.062;34.834;2024-01-25T10:34:38;101173.34;;;21.47;49.90
75938;BME280;64615;32.062;34.834;2024-01-25T10:37:05;101167.94;;;21.47;49.53
75938;BME280;64615;32.062;34.834;2024-01-25T10:39:32;101167.69;;;21.49;49.78
75938;BME280;64615;32.062;34.834;2024-01-25T10:41:59;101166.28;;;21.46;49.80
75938;BME280;64615;32.062;34.834;2024-01-25T10:44:25;101161.94;;;21.45;49.99
75938;BME280;64615;32.062;34.834;2024-01-25T10:46:50;101153.81;;;21.45;49.88
75938;BME280;64615;32.062;34.834;2024-01-25T10:49:17;101160.03;;;21.46;49.95
75938;BME280;64615;32.062;34.834;2024-01-25T10:51:44;101154.97;;;21.49;50.00
75938;BME280;64615;32.062;34.834;2024-01-25T10:54:14;101156.84;;;21.49;49.99
75938;BME280;64615;32.062;34.834;2024-01-25T10:56:46;101149.78;;;21.48;50.02
75938;BME280;64615;32.062;34.834;2024-01-25T10:59:13;101150.38;;;21.50;50.17
75938;BME280;64615;32.062;34.834;2024-01-25T11:01:45;101151.22;;;21.50;49.97
75938;BME280;64615;32.062;34.834;2024-01-25T11:04:18;101148.25;;;21.52;50.05
75938;BME280;64615;32.062;34.834;2024-01-25T11:06:45;101139.06;;;21.53;50.10
75938;BME280;64615;32.062;34.834;2024-01-25T11:09:17;101135.28;;;21.54;49.88
75938;BME280;64615;32.062;34.834;2024-01-25T11:11:46;101138.00;;;21.54;50.24
75938;BME280;64615;32.062;34.834;2024-01-25T11:14:13;101128.00;;;21.54;50.10
75938;BME280;64615;32.062;34.834;2024-01-25T11:16:41;101129.63;;;21.55;50.03
75938;BME280;64615;32.062;34.834;2024-01-25T11:19:19;101112.28;;;21.56;50.10
75938;BME280;64615;32.062;34.834;2024-01-25T11:21:48;101113.94;;;21.58;50.10
75938;BME280;64615;32.062;34.834;2024-01-25T11:24:16;101109.34;;;21.58;50.17
75938;BME280;64615;32.062;34.834;2024-01-25T11:26:44;101100.41;;;21.58;50.05
75938;BME280;64615;32.062;34.834;2024-01-25T11:29:14;101093.34;;;21.56;50.11
75938;BME280;64615;32.062;34.834;2024-01-25T11:31:45;101089.66;;;21.63;49.97
75938;BME280;64615;32.062;34.834;2024-01-25T11:34:11;101085.50;;;21.72;49.97
75938;BME280;64615;32.062;34.834;2024-01-25T11:36:38;101085.25;;;21.73;50.01
75938;BME280;64615;32.062;34.834;2024-01-25T11:39:04;101085.94;;;21.80;50.06
75938;BME280;64615;32.062;34.834;2024-01-25T11:41:32;101079.00;;;21.73;50.13
75938;BME280;64615;32.062;34.834;2024-01-25T11:43:57;101081.16;;;21.71;50.28
75938;BME280;64615;32.062;34.834;2024-01-25T11:46:23;101079.00;;;21.73;49.99
75938;BME280;64615;32.062;34.834;2024-01-25T11:48:50;101080.66;;;21.74;50.09
75938;BME280;64615;32.062;34.834;2024-01-25T11:51:15;101083.38;;;21.74;50.05
75938;BME280;64615;32.062;34.834;2024-01-25T11:53:41;101083.59;;;21.72;50.33
75938;BME280;64615;32.062;34.834;2024-01-25T11:56:16;101089.53;;;21.69;50.26
75938;BME280;64615;32.062;34.834;2024-01-25T11:58:44;101088.69;;;21.69;50.45
75938;BME280;64615;32.062;34.834;2024-01-25T12:01:11;101087.03;;;21.68;50.65
75938;BME280;64615;32.062;34.834;2024-01-25T12:03:40;101084.34;;;21.68;50.62
75938;BME280;64615;32.062;34.834;2024-01-25T12:06:06;101084.59;;;21.66;50.60
75938;BME280;64615;32.062;34.834;2024-01-25T12:08:34;101088.59;;;21.64;50.72
75938;BME280;64615;32.062;34.834;2024-01-25T12:11:05;101084.25;;;21.63;50.82
75938;BME280;64615;32.062;34.834;2024-01-25T12:13:40;101080.72;;;21.62;50.91
75938;BME280;64615;32.062;34.834;2024-01-25T12:16:07;101070.38;;;21.59;50.85
75938;BME280;64615;32.062;34.834;2024-01-25T12:18:34;101065.53;;;21.61;50.92
75938;BME280;64615;32.062;34.834;2024-01-25T12:21:02;101068.25;;;21.61;50.83
75938;BME280;64615;32.062;34.834;2024-01-25T12:23:36;101073.91;;;21.60;50.89
75938;BME280;64615;32.062;34.834;2024-01-25T12:26:03;101064.13;;;21.59;51.29
75938;BME280;64615;32.062;34.834;2024-01-25T12:28:30;101068.47;;;21.60;50.79
75938;BME280;64615;32.062;34.834;2024-01-25T12:30:56;101071.19;;;21.60;50.94
75938;BME280;64615;32.062;34.834;2024-01-25T12:33:22;101063.06;;;21.60;51.00
75938;BME280;64615;32.062;34.834;2024-01-25T12:35:48;101064.94;;;21.59;50.96